Time;durP1;ratioP1;P1;durP2;ratioP2;P2;SDS_P1;SDS_P2;PMS_P1;PMS_P2;Temp;Humidity;BMP_temperature;BMP_pressure;BME280_temperature;BME280_humidity;BME280_pressure;Samples;Min_cycle;Max_cycle;Signal;HPM_P1;HPM_P2
2023/05/06 00:00:58;;;;;;;4.97;4.47;;;15.40;99.90;;;;;;4974531;28;20183;-65
2023/05/06 00:03:24;;;;;;;5.63;4.00;;;15.40;99.90;;;;;;4974413;28;20180;-65
2023/05/06 00:05:49;;;;;;;8.17;6.73;;;15.40;99.90;;;;;;4974320;28;20172;-65
2023/05/06 00:08:15;;;;;;;4.47;4.07;;;15.40;99.90;;;;;;4973663;28;20200;-65
2023/05/06 00:10:41;;;;;;;6.63;4.00;;;15.30;99.90;;;;;;4974062;28;20231;-65
2023/05/06 00:13:07;;;;;;;3.73;3.43;;;15.30;99.90;;;;;;4974262;28;20654;-65
2023/05/06 00:15:33;;;;;;;3.57;3.37;;;15.30;99.90;;;;;;4974082;28;20176;-65
2023/05/06 00:17:59;;;;;;;3.63;3.33;;;15.30;99.90;;;;;;4973823;28;20463;-64
2023/05/06 00:20:26;;;;;;;3.13;2.70;;;15.20;99.90;;;;;;4973796;28;20431;-64
2023/05/06 00:22:51;;;;;;;6.20;3.30;;;15.20;99.90;;;;;;4973955;28;20501;-65
2023/05/06 00:25:17;;;;;;;3.73;3.13;;;15.20;99.90;;;;;;4973956;28;20423;-65
2023/05/06 00:27:42;;;;;;;2.80;2.63;;;15.30;99.90;;;;;;4973772;28;20209;-65
2023/05/06 00:30:09;;;;;;;3.83;3.03;;;15.20;99.90;;;;;;4973709;28;20179;-65
2023/05/06 00:32:34;;;;;;;3.70;3.00;;;15.10;99.90;;;;;;4973886;28;20221;-65
2023/05/06 00:35:00;;;;;;;3.57;3.27;;;15.00;99.90;;;;;;4973803;28;20411;-64
2023/05/06 00:37:25;;;;;;;4.53;3.57;;;15.00;99.90;;;;;;4973542;28;20279;-65
2023/05/06 00:39:51;;;;;;;3.93;3.57;;;14.90;99.90;;;;;;4973397;28;20203;-65
2023/05/06 00:42:16;;;;;;;4.03;3.70;;;14.80;99.90;;;;;;4973160;28;20183;-65
2023/05/06 00:44:42;;;;;;;4.23;3.63;;;14.80;99.90;;;;;;4973761;28;20646;-64
2023/05/06 00:47:07;;;;;;;3.33;3.03;;;14.80;99.90;;;;;;4973410;28;20211;-65
2023/05/06 00:49:33;;;;;;;3.60;3.30;;;14.80;99.90;;;;;;4973270;28;20175;-65
2023/05/06 00:52:00;;;;;;;3.87;3.57;;;14.80;99.90;;;;;;4973466;28;20168;-65
2023/05/06 00:54:26;;;;;;;3.30;3.10;;;14.80;99.90;;;;;;4973363;28;20754;-64
2023/05/06 00:56:52;;;;;;;4.17;3.77;;;14.70;99.90;;;;;;4973340;28;20466;-64
2023/05/06 00:59:18;;;;;;;4.83;3.47;;;14.70;99.90;;;;;;4973135;28;20412;-64
2023/05/06 01:01:43;;;;;;;5.43;3.07;;;14.70;99.90;;;;;;4973352;28;20427;-64
2023/05/06 01:04:09;;;;;;;3.53;3.33;;;14.80;99.90;;;;;;4973368;28;20176;-65
2023/05/06 01:06:43;;;;;;;3.80;3.40;;;14.80;99.90;;;;;;4973457;28;20192;-65
2023/05/06 01:09:30;;;;;;;3.90;3.50;;;14.80;99.90;;;;;;4973059;28;20194;-65
2023/05/06 01:12:18;;;;;;;3.50;3.30;;;14.70;99.90;;;;;;4973480;28;20419;-65
2023/05/06 01:14:56;;;;;;;3.37;3.17;;;14.60;99.90;;;;;;4973248;28;20420;-64
2023/05/06 01:17:26;;;;;;;3.90;3.60;;;14.60;99.90;;;;;;4973124;28;20470;-65
2023/05/06 01:19:57;;;;;;;3.83;3.53;;;14.60;99.90;;;;;;4955680;28;20948;-65
2023/05/06 01:22:25;;;;;;;3.60;3.40;;;14.60;99.90;;;;;;4973274;28;20522;-65
2023/05/06 01:24:51;;;;;;;3.90;3.60;;;14.60;99.90;;;;;;4973145;28;20427;-65
2023/05/06 01:27:17;;;;;;;3.40;3.20;;;14.60;99.90;;;;;;4973012;28;20490;-65
2023/05/06 01:29:45;;;;;;;3.47;3.17;;;14.60;99.90;;;;;;4972732;28;20202;-64
2023/05/06 01:32:51;;;;;;;6.57;4.53;;;14.60;99.90;;;;;;4973083;28;20224;-64
2023/05/06 01:35:44;;;;;;;4.90;4.03;;;14.70;99.90;;;;;;4973049;28;20921;-64
2023/05/06 01:38:26;;;;;;;4.23;3.67;;;14.70;99.90;;;;;;4955437;28;20982;-65
2023/05/06 01:40:55;;;;;;;7.90;4.50;;;14.70;99.90;;;;;;4973087;28;20427;-64
2023/05/06 01:43:23;;;;;;;4.70;4.20;;;14.80;99.90;;;;;;4972950;28;20419;-65
2023/05/06 01:45:52;;;;;;;12.03;3.83;;;14.80;99.90;;;;;;4972825;28;20455;-65
2023/05/06 01:48:25;;;;;;;4.00;3.60;;;14.70;99.90;;;;;;4972535;28;20510;-65
2023/05/06 01:50:51;;;;;;;4.83;4.43;;;14.70;99.90;;;;;;4972963;28;20420;-65
2023/05/06 01:53:17;;;;;;;3.60;3.10;;;14.70;99.90;;;;;;4974585;28;20486;-65
2023/05/06 01:55:42;;;;;;;4.80;3.83;;;14.70;99.90;;;;;;4976649;28;20507;-64
2023/05/06 01:58:08;;;;;;;4.80;4.30;;;14.70;99.90;;;;;;4976480;28;20681;-65
2023/05/06 02:00:33;;;;;;;5.33;3.50;;;14.70;99.90;;;;;;4976335;28;20183;-65
2023/05/06 02:02:59;;;;;;;4.43;3.67;;;14.60;99.90;;;;;;4976560;28;20644;-65
2023/05/06 02:05:25;;;;;;;3.83;3.53;;;14.60;99.90;;;;;;4976512;28;20268;-65
2023/05/06 02:07:50;;;;;;;4.70;4.30;;;14.50;99.90;;;;;;4976243;28;20207;-65
2023/05/06 02:10:16;;;;;;;4.43;4.13;;;14.60;99.90;;;;;;4976248;28;20411;-65
2023/05/06 02:12:41;;;;;;;4.90;4.40;;;14.60;99.90;;;;;;4976436;28;20191;-65
2023/05/06 02:15:08;;;;;;;4.10;3.50;;;14.60;99.90;;;;;;4976345;28;20223;-65
2023/05/06 02:17:34;;;;;;;4.30;3.63;;;14.60;99.90;;;;;;4975998;28;20248;-65
2023/05/06 02:20:00;;;;;;;4.10;3.30;;;14.60;99.90;;;;;;4975937;28;20415;-64
2023/05/06 02:22:25;;;;;;;3.77;3.47;;;14.60;99.90;;;;;;4976101;28;20423;-65
2023/05/06 02:24:51;;;;;;;3.60;3.27;;;14.50;99.90;;;;;;4976206;28;20207;-65
2023/05/06 02:27:17;;;;;;;6.57;4.20;;;14.50;99.90;;;;;;4976037;28;20572;-65
2023/05/06 02:29:42;;;;;;;4.53;3.33;;;14.50;99.90;;;;;;4975865;28;20642;-65
2023/05/06 02:32:08;;;;;;;5.80;3.73;;;14.40;99.90;;;;;;4975889;28;20179;-65
2023/05/06 02:34:33;;;;;;;4.43;4.03;;;14.40;99.90;;;;;;4976158;28;20195;-65
2023/05/06 02:36:59;;;;;;;3.60;3.40;;;14.40;99.90;;;;;;4975740;28;20559;-64
2023/05/06 02:39:24;;;;;;;3.43;3.13;;;14.40;99.90;;;;;;4975562;28;20522;-65
2023/05/06 02:41:50;;;;;;;4.23;3.93;;;14.50;99.90;;;;;;4975992;28;20176;-65
2023/05/06 02:44:15;;;;;;;4.17;3.50;;;14.40;99.90;;;;;;4975770;28;20215;-65
2023/05/06 02:46:42;;;;;;;3.73;3.33;;;14.50;99.90;;;;;;4975570;28;20196;-65
2023/05/06 02:49:08;;;;;;;4.80;4.30;;;14.50;99.90;;;;;;4975449;28;20183;-65
2023/05/06 02:51:33;;;;;;;4.20;3.80;;;14.50;99.90;;;;;;4975636;28;20512;-65
2023/05/06 02:53:59;;;;;;;4.40;3.87;;;14.40;99.90;;;;;;4975727;28;20176;-65
2023/05/06 02:56:24;;;;;;;3.87;3.57;;;14.40;99.90;;;;;;4975505;28;20735;-65
2023/05/06 02:58:50;;;;;;;3.73;3.43;;;14.40;99.90;;;;;;4975262;28;20184;-65
2023/05/06 03:01:15;;;;;;;3.90;3.60;;;14.40;99.90;;;;;;4975405;28;20173;-65
2023/05/06 03:03:41;;;;;;;5.20;4.47;;;14.40;99.90;;;;;;4975316;28;20180;-65
2023/05/06 03:06:06;;;;;;;3.10;2.90;;;14.30;99.90;;;;;;4974683;28;20176;-65
2023/05/06 03:08:32;;;;;;;4.13;3.83;;;14.30;99.90;;;;;;4975151;28;20740;-65
2023/05/06 03:10:57;;;;;;;6.73;3.73;;;14.30;99.90;;;;;;4975374;28;20243;-65
2023/05/06 03:13:23;;;;;;;4.60;4.20;;;14.30;99.90;;;;;;4975324;28;20191;-65
2023/05/06 03:15:55;;;;;;;4.60;4.30;;;14.30;99.90;;;;;;4975189;28;20176;-65
2023/05/06 03:18:21;;;;;;;4.43;4.13;;;14.20;99.90;;;;;;4974870;28;20270;-65
2023/05/06 03:20:50;;;;;;;4.33;4.03;;;14.20;99.90;;;;;;4975225;28;20510;-65
2023/05/06 03:23:15;;;;;;;4.00;3.70;;;14.20;99.90;;;;;;4975105;28;20172;-65
2023/05/06 03:25:41;;;;;;;5.10;4.37;;;14.20;99.90;;;;;;4974966;28;20502;-65
2023/05/06 03:28:06;;;;;;;5.27;4.87;;;14.20;99.90;;;;;;4974794;28;20215;-65
2023/05/06 03:30:32;;;;;;;5.33;4.70;;;14.20;99.90;;;;;;4974626;28;20235;-65
2023/05/06 03:33:00;;;;;;;4.57;4.20;;;14.20;99.90;;;;;;4974933;28;20172;-65
2023/05/06 03:35:25;;;;;;;5.00;4.30;;;14.20;99.90;;;;;;4974897;28;20195;-66
2023/05/06 03:37:51;;;;;;;4.40;4.00;;;14.20;99.90;;;;;;4974779;28;20443;-65
2023/05/06 03:40:17;;;;;;;5.10;4.70;;;14.10;99.90;;;;;;4974572;28;20190;-65
2023/05/06 03:42:43;;;;;;;5.40;4.60;;;14.00;99.90;;;;;;4974767;28;20184;-65
2023/05/06 03:45:08;;;;;;;5.00;4.60;;;14.00;99.90;;;;;;4974568;28;20168;-65
2023/05/06 03:47:34;;;;;;;4.80;4.47;;;14.00;99.90;;;;;;4974686;28;20514;-65
2023/05/06 03:49:59;;;;;;;4.90;4.40;;;14.00;99.90;;;;;;4974297;28;20172;-65
2023/05/06 03:52:25;;;;;;;5.83;5.43;;;14.00;99.90;;;;;;4974433;28;20175;-65
2023/05/06 03:54:51;;;;;;;5.37;5.07;;;14.00;99.90;;;;;;4974490;28;20179;-65
2023/05/06 03:57:16;;;;;;;5.00;4.50;;;14.00;99.90;;;;;;4974374;28;20283;-65
2023/05/06 03:59:42;;;;;;;5.33;4.37;;;14.00;99.90;;;;;;4973966;28;20192;-65
2023/05/06 04:02:07;;;;;;;4.77;4.40;;;14.00;99.90;;;;;;4974389;28;20169;-65
2023/05/06 04:04:33;;;;;;;5.13;4.60;;;14.00;99.90;;;;;;4974286;28;20180;-65
2023/05/06 04:06:59;;;;;;;4.47;4.17;;;13.90;99.90;;;;;;4974024;28;20200;-65
2023/05/06 04:09:25;;;;;;;5.10;4.60;;;13.80;99.90;;;;;;4973924;28;20174;-65
2023/05/06 04:11:50;;;;;;;5.13;4.70;;;13.70;99.90;;;;;;4974182;28;20891;-65
2023/05/06 04:14:16;;;;;;;6.00;5.50;;;13.60;99.90;;;;;;4974055;28;20183;-66
2023/05/06 04:16:42;;;;;;;5.47;5.00;;;13.60;99.90;;;;;;4972276;28;20716;-65
2023/05/06 04:19:07;;;;;;;5.60;5.20;;;13.60;99.90;;;;;;4973693;28;20218;-65
2023/05/06 04:21:33;;;;;;;6.13;5.63;;;13.60;99.90;;;;;;4974153;28;20222;-65
2023/05/06 04:23:58;;;;;;;5.40;5.00;;;13.60;99.90;;;;;;4974079;28;20661;-65
2023/05/06 04:26:24;;;;;;;6.13;5.40;;;13.60;99.90;;;;;;4973839;28;20188;-65
2023/05/06 04:28:50;;;;;;;5.63;5.10;;;13.70;99.90;;;;;;4973515;28;20720;-65
2023/05/06 04:31:16;;;;;;;7.83;5.60;;;13.70;99.90;;;;;;4973771;28;20183;-65
2023/05/06 04:33:41;;;;;;;6.60;5.43;;;13.70;99.90;;;;;;4973763;28;20427;-65
2023/05/06 04:36:07;;;;;;;6.33;5.70;;;13.70;99.90;;;;;;4973644;28;20296;-65
2023/05/06 04:38:33;;;;;;;9.00;5.33;;;13.70;99.90;;;;;;4973492;28;20192;-65
2023/05/06 04:40:59;;;;;;;7.17;5.93;;;13.60;99.90;;;;;;4973741;28;20447;-65
2023/05/06 04:43:28;;;;;;;6.63;5.60;;;13.60;99.90;;;;;;4973675;28;21000;-65
2023/05/06 04:45:54;;;;;;;6.10;5.60;;;13.60;99.90;;;;;;4973561;28;20772;-65
2023/05/06 04:48:23;;;;;;;7.00;6.50;;;13.50;99.90;;;;;;4973376;28;20542;-65
2023/05/06 04:50:49;;;;;;;6.70;6.10;;;13.60;99.90;;;;;;4973517;28;20452;-65
2023/05/06 04:53:15;;;;;;;9.23;8.10;;;13.60;99.90;;;;;;4956250;28;20419;-65
2023/05/06 04:55:41;;;;;;;10.70;9.70;;;13.70;99.90;;;;;;4973561;28;20434;-65
2023/05/06 04:58:06;;;;;;;11.63;7.53;;;13.80;99.90;;;;;;4973317;28;20568;-65
2023/05/06 05:00:33;;;;;;;7.47;6.87;;;13.80;99.90;;;;;;4973154;28;20164;-65
2023/05/06 05:02:58;;;;;;;8.17;7.50;;;13.90;99.90;;;;;;4973327;28;20191;-65
2023/05/06 05:05:25;;;;;;;6.00;5.40;;;13.90;99.90;;;;;;4973345;28;20428;-65
2023/05/06 05:07:51;;;;;;;7.60;6.10;;;14.00;99.90;;;;;;4973122;28;20208;-65
2023/05/06 05:10:16;;;;;;;7.20;6.57;;;14.10;99.90;;;;;;4973044;28;20472;-65
2023/05/06 05:12:42;;;;;;;6.17;5.57;;;14.20;99.90;;;;;;4973176;28;20519;-65
2023/05/06 05:15:08;;;;;;;5.90;5.40;;;14.20;99.90;;;;;;4973133;28;20861;-65
2023/05/06 05:17:33;;;;;;;7.83;7.13;;;14.20;99.90;;;;;;5003471;23;20242;-73
2023/05/06 05:19:59;;;;;;;7.17;6.57;;;14.30;99.90;;;;;;4991813;28;20229;-72
2023/05/06 05:22:25;;;;;;;7.73;6.30;;;14.30;99.90;;;;;;4992670;28;20603;-74
2023/05/06 05:24:50;;;;;;;6.47;5.80;;;14.40;99.90;;;;;;4992592;28;20443;-73
2023/05/06 05:27:16;;;;;;;7.17;6.53;;;14.50;99.90;;;;;;4983200;28;20263;-74
2023/05/06 05:29:41;;;;;;;7.70;7.03;;;14.70;99.90;;;;;;4976853;28;20251;-73
2023/05/06 05:32:07;;;;;;;6.43;5.83;;;14.90;99.90;;;;;;4977051;28;20168;-74
2023/05/06 05:34:32;;;;;;;5.80;5.40;;;15.10;99.90;;;;;;4977070;28;20176;-72
2023/05/06 05:36:58;;;;;;;6.97;6.37;;;15.30;99.90;;;;;;4976918;28;20196;-73
2023/05/06 05:39:23;;;;;;;6.73;6.13;;;15.50;99.90;;;;;;4976696;28;20664;-73
2023/05/06 05:41:49;;;;;;;9.57;7.17;;;15.60;99.90;;;;;;4976930;28;20199;-72
2023/05/06 05:44:14;;;;;;;6.23;5.73;;;15.70;99.90;;;;;;4977036;28;20704;-73
2023/05/06 05:46:41;;;;;;;6.53;5.87;;;15.80;99.90;;;;;;4976908;28;20192;-74
2023/05/06 05:49:06;;;;;;;6.93;6.33;;;15.80;99.90;;;;;;4976538;28;20214;-74
2023/05/06 05:51:32;;;;;;;5.17;4.67;;;15.90;99.90;;;;;;4976740;28;20780;-73
2023/05/06 05:53:58;;;;;;;5.30;4.77;;;16.00;99.90;;;;;;4959251;28;20604;-72
2023/05/06 05:56:23;;;;;;;7.83;5.33;;;16.20;99.90;;;;;;4976642;28;20669;-74
2023/05/06 05:58:49;;;;;;;5.30;4.90;;;16.30;99.90;;;;;;4976369;28;20707;-73
2023/05/06 06:01:14;;;;;;;5.00;4.43;;;16.40;99.90;;;;;;4976611;28;20187;-72
2023/05/06 06:03:40;;;;;;;4.90;4.50;;;16.40;99.90;;;;;;4976550;28;20204;-73
2023/05/06 06:06:06;;;;;;;4.30;3.90;;;16.60;99.90;;;;;;4976432;28;20623;-72
2023/05/06 06:08:32;;;;;;;4.40;4.00;;;16.80;99.90;;;;;;4975973;28;20486;-73
2023/05/06 06:10:58;;;;;;;4.90;4.60;;;16.90;99.90;;;;;;4976502;28;20196;-72
2023/05/06 06:13:23;;;;;;;6.37;4.47;;;17.00;99.90;;;;;;4959017;28;20563;-73
2023/05/06 06:15:49;;;;;;;4.83;3.63;;;17.20;99.90;;;;;;4976264;28;20685;-73
2023/05/06 06:18:15;;;;;;;3.63;3.30;;;17.20;99.90;;;;;;4975861;28;20218;-73
2023/05/06 06:20:40;;;;;;;4.20;3.80;;;17.40;99.90;;;;;;4976244;28;20656;-73
2023/05/06 06:23:06;;;;;;;3.00;2.80;;;17.50;99.90;;;;;;4976133;28;20177;-74
2023/05/06 06:25:31;;;;;;;3.50;2.57;;;17.70;99.90;;;;;;4976355;28;20173;-73
2023/05/06 06:27:57;;;;;;;3.77;3.47;;;17.70;99.90;;;;;;4975993;28;20248;-73
2023/05/06 06:30:22;;;;;;;3.33;2.70;;;17.80;99.90;;;;;;4975814;28;20180;-73
2023/05/06 06:32:50;;;;;;;3.90;2.70;;;17.70;99.90;;;;;;4976065;28;20172;-73
2023/05/06 06:35:16;;;;;;;2.97;2.73;;;17.80;99.90;;;;;;4976209;28;20175;-73
2023/05/06 06:37:41;;;;;;;3.07;2.87;;;17.90;99.90;;;;;;4975780;28;20582;-73
2023/05/06 06:40:09;;;;;;;3.17;2.97;;;17.90;99.90;;;;;;4974512;28;21001;-74
2023/05/06 06:42:34;;;;;;;3.03;2.73;;;18.10;99.90;;;;;;4975907;28;20180;-73
2023/05/06 06:45:00;;;;;;;3.60;2.43;;;18.20;99.90;;;;;;4975905;28;20929;-73
2023/05/06 06:47:26;;;;;;;4.63;2.53;;;18.10;99.90;;;;;;4975699;28;20279;-73
2023/05/06 06:49:51;;;;;;;2.83;2.60;;;18.20;99.90;;;;;;4975529;28;20172;-72
2023/05/06 06:52:17;;;;;;;3.60;2.30;;;18.40;99.90;;;;;;4975531;28;20172;-73
2023/05/06 06:54:42;;;;;;;6.27;2.77;;;18.50;99.90;;;;;;4975882;28;20172;-73
2023/05/06 06:57:08;;;;;;;4.50;2.87;;;18.50;99.90;;;;;;4975550;28;20188;-72
2023/05/06 06:59:33;;;;;;;2.70;2.50;;;18.30;99.90;;;;;;4975282;28;20191;-72
2023/05/06 07:01:59;;;;;;;3.90;2.70;;;18.50;99.90;;;;;;4975457;28;20595;-72
2023/05/06 07:04:25;;;;;;;3.00;2.20;;;18.80;99.90;;;;;;4975524;28;20176;-73
2023/05/06 07:06:50;;;;;;;2.83;2.50;;;19.20;99.90;;;;;;4975307;28;20435;-73
2023/05/06 07:09:16;;;;;;;4.10;2.90;;;19.30;99.90;;;;;;4975062;28;20211;-72
2023/05/06 07:11:41;;;;;;;2.20;2.00;;;19.20;99.90;;;;;;4975522;28;20168;-73
2023/05/06 07:14:07;;;;;;;2.10;2.00;;;19.20;99.90;;;;;;4969453;28;20647;-71
2023/05/06 07:16:33;;;;;;;3.23;2.30;;;19.20;99.90;;;;;;4964304;28;20205;-72
2023/05/06 07:18:59;;;;;;;2.37;2.17;;;19.10;99.90;;;;;;4965014;28;20435;-72
2023/05/06 07:21:26;;;;;;;2.90;2.70;;;19.00;99.90;;;;;;4965863;28;20169;-71
2023/05/06 07:23:51;;;;;;;2.97;2.53;;;19.20;99.90;;;;;;4963851;28;20428;-72
2023/05/06 07:26:17;;;;;;;3.43;2.63;;;19.60;99.90;;;;;;4956286;28;20441;-73
2023/05/06 07:28:43;;;;;;;3.10;2.17;;;20.00;99.90;;;;;;4955358;28;20269;-73
2023/05/06 07:31:08;;;;;;;2.80;1.77;;;20.10;99.90;;;;;;4970028;28;20298;-72
2023/05/06 07:33:34;;;;;;;2.20;2.00;;;20.00;99.90;;;;;;4963143;28;20188;-73
2023/05/06 07:35:59;;;;;;;2.13;2.03;;;19.80;99.90;;;;;;4955588;28;20185;-72
2023/05/06 07:38:26;;;;;;;3.47;2.43;;;19.80;99.90;;;;;;4955347;29;20200;-72
2023/05/06 07:40:52;;;;;;;3.47;3.17;;;20.00;99.90;;;;;;4955660;29;20561;-72
2023/05/06 07:43:17;;;;;;;1.90;1.80;;;20.10;99.90;;;;;;4955487;29;20427;-72
2023/05/06 07:45:43;;;;;;;2.30;2.20;;;20.10;99.90;;;;;;4955365;29;20267;-72
2023/05/06 07:48:08;;;;;;;3.00;2.00;;;20.30;99.90;;;;;;4962117;28;20283;-72
2023/05/06 07:50:34;;;;;;;2.57;2.37;;;20.60;99.90;;;;;;4972081;28;20251;-72
2023/05/06 07:53:00;;;;;;;2.23;2.00;;;20.50;99.90;;;;;;4963842;28;20247;-72
2023/05/06 07:55:26;;;;;;;8.63;2.30;;;20.70;99.90;;;;;;4974846;28;20722;-72
2023/05/06 07:57:52;;;;;;;5.03;2.33;;;20.80;99.90;;;;;;4974446;28;20439;-71
2023/05/06 08:00:17;;;;;;;2.20;1.70;;;20.70;99.90;;;;;;4974316;28;20773;-72
2023/05/06 08:02:43;;;;;;;2.23;2.13;;;20.40;99.90;;;;;;4974826;28;20165;-73
2023/05/06 08:05:12;;;;;;;5.10;2.03;;;20.30;99.90;;;;;;4975033;28;20192;-75
2023/05/06 08:07:40;;;;;;;2.03;1.87;;;20.20;99.90;;;;;;4989519;28;20210;-73
2023/05/06 08:10:06;;;;;;;3.40;2.07;;;19.70;99.90;;;;;;4993051;28;20427;-72
2023/05/06 08:12:34;;;;;;;2.00;1.40;;;19.80;99.90;;;;;;4993716;28;20422;-73
2023/05/06 08:15:00;;;;;;;2.27;1.70;;;20.30;99.90;;;;;;4993610;28;20415;-72
2023/05/06 08:17:26;;;;;;;2.80;1.97;;;20.90;99.90;;;;;;4993333;28;20473;-72
2023/05/06 08:19:52;;;;;;;1.80;1.70;;;21.20;99.90;;;;;;4993411;28;20423;-77
2023/05/06 08:22:17;;;;;;;1.90;1.80;;;21.80;99.90;;;;;;4993472;28;20610;-73
2023/05/06 08:24:43;;;;;;;1.80;1.70;;;21.90;99.90;;;;;;4993536;28;20181;-72
2023/05/06 08:27:08;;;;;;;4.97;1.50;;;22.00;99.90;;;;;;4993197;28;20719;-73
2023/05/06 08:29:34;;;;;;;2.60;1.63;;;22.10;99.90;;;;;;4993059;28;20226;-72
2023/05/06 08:32:00;;;;;;;1.90;1.80;;;22.30;99.90;;;;;;4993308;28;20218;-72
2023/05/06 08:34:25;;;;;;;2.40;1.43;;;22.60;99.90;;;;;;4993196;28;20172;-72
2023/05/06 08:36:51;;;;;;;4.33;1.80;;;22.70;99.90;;;;;;4993105;28;20446;-73
2023/05/06 08:39:17;;;;;;;1.53;1.43;;;22.60;99.90;;;;;;4993027;28;20171;-72
2023/05/06 08:41:47;;;;;;;1.30;1.20;;;22.20;99.90;;;;;;4993292;28;20171;-72
2023/05/06 08:44:16;;;;;;;3.10;1.67;;;21.90;99.90;;;;;;4992916;28;20260;-72
2023/05/06 08:46:42;;;;;;;2.57;1.63;;;21.30;99.90;;;;;;4992939;28;20470;-73
2023/05/06 08:49:08;;;;;;;1.97;1.50;;;21.10;99.90;;;;;;4992539;28;20496;-74
2023/05/06 08:51:34;;;;;;;1.23;1.13;;;21.40;99.90;;;;;;4988593;28;20634;-73
2023/05/06 08:54:02;;;;;;;1.80;1.70;;;21.70;99.90;;;;;;4986276;28;20462;-74
2023/05/06 08:56:31;;;;;;;1.83;1.73;;;22.20;99.90;;;;;;4982414;28;20203;-73
2023/05/06 08:58:57;;;;;;;1.83;1.60;;;22.90;99.90;;;;;;4987191;28;20514;-74
2023/05/06 09:01:26;;;;;;;1.33;1.23;;;23.20;99.90;;;;;;4985435;28;20465;-74
2023/05/06 09:03:52;;;;;;;2.80;1.27;;;22.60;99.90;;;;;;4984513;28;20455;-74
2023/05/06 09:06:18;;;;;;;2.10;1.23;;;22.70;99.90;;;;;;4987685;28;20427;-75
2023/05/06 09:08:43;;;;;;;2.27;1.33;;;23.10;99.90;;;;;;4988707;28;20454;-75
2023/05/06 09:11:22;;;;;;;3.67;1.50;;;23.50;99.90;;;;;;4988580;28;20178;-74
2023/05/06 09:13:49;;;;;;;4.17;1.23;;;23.90;99.90;;;;;;4983211;28;20242;-75
2023/05/06 09:16:29;;;;;;;3.23;1.67;;;24.00;99.10;;;;;;4987374;28;20554;-71
2023/05/06 09:18:55;;;;;;;4.03;1.40;;;23.60;99.90;;;;;;4988170;28;20509;-67
2023/05/06 09:21:27;;;;;;;1.53;1.43;;;23.30;99.90;;;;;;4983588;28;20565;-67
2023/05/06 09:23:53;;;;;;;1.60;1.40;;;23.20;99.80;;;;;;4988442;28;20469;-67
2023/05/06 09:26:21;;;;;;;3.00;1.60;;;23.00;99.90;;;;;;4986807;28;20454;-66
2023/05/06 09:28:47;;;;;;;1.80;1.40;;;22.80;99.90;;;;;;4981482;28;20234;-67
2023/05/06 09:31:16;;;;;;;2.03;1.67;;;22.60;99.90;;;;;;4989588;28;20427;-67
2023/05/06 09:33:41;;;;;;;2.30;1.90;;;22.30;99.90;;;;;;4992571;28;20660;-67
2023/05/06 09:36:09;;;;;;;3.70;2.13;;;22.20;99.90;;;;;;4992389;28;20423;-67
2023/05/06 09:38:35;;;;;;;2.83;1.97;;;22.10;99.90;;;;;;4992207;28;20179;-67
2023/05/06 09:41:03;;;;;;;3.83;2.40;;;22.10;99.90;;;;;;4992257;28;20430;-67
2023/05/06 09:43:29;;;;;;;1.90;1.70;;;22.30;99.90;;;;;;4992395;28;20179;-67
2023/05/06 09:45:54;;;;;;;1.67;1.57;;;22.40;99.90;;;;;;4992500;28;20852;-67
2023/05/06 09:48:21;;;;;;;2.60;1.70;;;23.30;99.90;;;;;;4991897;28;20734;-67
2023/05/06 09:50:46;;;;;;;1.80;1.67;;;24.20;96.70;;;;;;4992395;28;20254;-67
2023/05/06 09:53:13;;;;;;;4.97;1.80;;;24.60;95.40;;;;;;4992379;28;20499;-68
2023/05/06 09:55:39;;;;;;;3.43;2.17;;;25.30;91.90;;;;;;4992290;28;20178;-66
2023/05/06 09:58:06;;;;;;;4.77;4.30;;;26.00;92.00;;;;;;4992268;28;20435;-67
2023/05/06 10:00:33;;;;;;;2.70;2.07;;;26.10;90.40;;;;;;4973146;28;20424;-67
2023/05/06 10:02:59;;;;;;;2.17;1.60;;;26.40;87.40;;;;;;4972977;28;20790;-67
2023/05/06 10:05:27;;;;;;;2.33;1.67;;;27.00;81.90;;;;;;4972795;28;20424;-67
2023/05/06 10:07:56;;;;;;;2.83;1.60;;;26.40;82.20;;;;;;4975625;28;20463;-67
2023/05/06 10:10:22;;;;;;;1.60;1.43;;;27.00;83.70;;;;;;4972418;28;20423;-68
2023/05/06 10:12:48;;;;;;;2.60;2.40;;;26.90;79.50;;;;;;4972659;28;20415;-68
2023/05/06 10:15:14;;;;;;;1.67;1.57;;;26.40;80.20;;;;;;4972952;28;20420;-65
2023/05/06 10:17:43;;;;;;;4.30;1.90;;;26.80;78.40;;;;;;4976276;28;20474;-64
2023/05/06 10:20:12;;;;;;;1.93;1.40;;;28.40;72.40;;;;;;4976048;28;20420;-64
2023/05/06 10:22:56;;;;;;;1.67;1.57;;;29.20;68.50;;;;;;4975684;28;20419;-64
2023/05/06 10:25:36;;;;;;;1.83;1.73;;;29.80;65.90;;;;;;4972791;28;20459;-64
2023/05/06 10:28:06;;;;;;;2.80;1.67;;;29.00;62.20;;;;;;4971473;28;20470;-64
2023/05/06 10:30:36;;;;;;;2.03;1.40;;;29.60;61.80;;;;;;4976886;28;20428;-63
2023/05/06 10:33:06;;;;;;;1.47;1.37;;;31.80;58.10;;;;;;4977010;28;20554;-63
2023/05/06 10:35:49;;;;;;;1.57;1.30;;;32.70;53.50;;;;;;4963583;28;20767;-63
2023/05/06 10:38:30;;;;;;;2.13;1.93;;;32.70;51.90;;;;;;4973955;28;20447;-64
2023/05/06 10:40:56;;;;;;;1.63;1.40;;;33.40;47.80;;;;;;4976472;28;20419;-64
2023/05/06 10:43:28;;;;;;;1.77;1.67;;;33.00;47.30;;;;;;4976099;28;20427;-64
2023/05/06 10:46:08;;;;;;;5.17;1.83;;;32.50;47.80;;;;;;4975393;28;20794;-66
2023/05/06 10:48:35;;;;;;;2.33;1.73;;;32.10;48.00;;;;;;4975922;28;20992;-66
2023/05/06 10:51:16;;;;;;;2.10;1.80;;;33.10;47.60;;;;;;4975931;28;20417;-65
2023/05/06 10:54:03;;;;;;;1.80;1.20;;;33.30;46.40;;;;;;4975879;28;20439;-65
2023/05/06 10:56:57;;;;;;;1.67;1.57;;;32.30;46.10;;;;;;4975878;28;20443;-66
2023/05/06 10:59:23;;;;;;;2.80;2.27;;;33.30;46.60;;;;;;4975598;28;20818;-62
2023/05/06 11:02:02;;;;;;;1.70;1.43;;;32.90;45.70;;;;;;4975465;28;20482;-63
2023/05/06 11:04:30;;;;;;;4.73;2.53;;;32.40;46.90;;;;;;4975942;28;20478;-65
2023/05/06 11:07:12;;;;;;;2.17;1.83;;;31.80;47.60;;;;;;4975708;28;20447;-66
2023/05/06 11:10:09;;;;;;;1.77;1.67;;;30.70;47.50;;;;;;4975221;28;20431;-66
2023/05/06 11:12:47;;;;;;;1.60;1.50;;;31.30;48.30;;;;;;4967530;28;20423;-65
2023/05/06 11:15:36;;;;;;;2.33;1.93;;;32.10;46.80;;;;;;4975737;28;20427;-66
2023/05/06 11:18:28;;;;;;;1.97;1.50;;;33.70;45.30;;;;;;4975572;28;20467;-66
2023/05/06 11:20:59;;;;;;;2.03;1.90;;;32.40;45.10;;;;;;4975141;28;20507;-66
2023/05/06 11:23:40;;;;;;;2.50;2.17;;;32.40;46.60;;;;;;4975637;28;20515;-66
2023/05/06 11:26:06;;;;;;;3.60;1.87;;;32.30;46.60;;;;;;4974756;28;20431;-67
2023/05/06 11:28:33;;;;;;;2.53;2.33;;;32.30;46.70;;;;;;4974888;28;20462;-67
2023/05/06 11:30:59;;;;;;;1.90;1.80;;;32.30;46.40;;;;;;4973122;28;20423;-66
2023/05/06 11:33:28;;;;;;;4.50;3.50;;;33.70;46.50;;;;;;4955859;28;20431;-67
2023/05/06 11:35:54;;;;;;;2.77;2.57;;;35.30;44.40;;;;;;4974638;28;20439;-67
2023/05/06 11:38:19;;;;;;;2.13;1.63;;;36.80;42.60;;;;;;4974708;28;20853;-66
2023/05/06 11:40:45;;;;;;;2.43;1.67;;;37.50;39.60;;;;;;4974629;28;20180;-67
2023/05/06 11:43:12;;;;;;;2.07;1.70;;;37.00;39.40;;;;;;4974364;28;20658;-67
2023/05/06 11:45:43;;;;;;;2.33;2.10;;;35.60;40.30;;;;;;4974648;28;20204;-67
2023/05/06 11:48:12;;;;;;;3.70;3.00;;;34.30;42.30;;;;;;4974249;28;20554;-69
2023/05/06 11:50:42;;;;;;;2.30;2.07;;;32.90;42.30;;;;;;4974837;28;20419;-68
2023/05/06 11:53:08;;;;;;;2.23;2.00;;;29.30;44.80;;;;;;4988571;28;20410;-68
2023/05/06 11:55:34;;;;;;;2.63;2.43;;;26.50;49.70;;;;;;4993786;28;20469;-67
2023/05/06 11:57:59;;;;;;;2.40;2.20;;;25.40;53.00;;;;;;4993546;28;20206;-68
2023/05/06 12:00:25;;;;;;;2.00;1.80;;;25.50;52.60;;;;;;4993579;28;20418;-67
2023/05/06 12:02:55;;;;;;;2.03;1.93;;;25.60;53.80;;;;;;4993750;28;20171;-67
2023/05/06 12:05:23;;;;;;;2.70;2.10;;;25.90;52.90;;;;;;4993866;28;20253;-68
2023/05/06 12:07:49;;;;;;;2.13;2.03;;;25.50;53.10;;;;;;4993444;28;20474;-67
2023/05/06 12:10:16;;;;;;;2.57;2.30;;;25.70;54.00;;;;;;4993391;28;20423;-67
2023/05/06 12:12:42;;;;;;;2.30;2.10;;;25.50;54.30;;;;;;4993623;28;20168;-67
2023/05/06 12:15:08;;;;;;;3.00;2.33;;;26.80;53.20;;;;;;4993579;28;20438;-67
2023/05/06 12:17:34;;;;;;;2.30;2.10;;;29.60;49.80;;;;;;4993369;28;20462;-67
2023/05/06 12:20:00;;;;;;;2.57;2.37;;;30.80;47.80;;;;;;4993143;28;20779;-67
2023/05/06 12:22:25;;;;;;;2.70;2.50;;;32.60;45.90;;;;;;4993314;28;20183;-67
2023/05/06 12:24:51;;;;;;;2.53;2.00;;;32.00;44.80;;;;;;4993364;28;20172;-67
2023/05/06 12:27:33;;;;;;;2.33;2.03;;;31.30;47.10;;;;;;4993234;28;20243;-68
2023/05/06 12:29:59;;;;;;;3.27;2.70;;;32.20;45.90;;;;;;4992968;28;20183;-67
2023/05/06 12:32:25;;;;;;;2.87;2.27;;;30.60;45.70;;;;;;4993282;28;20415;-67
2023/05/06 12:34:51;;;;;;;2.63;2.43;;;29.10;46.70;;;;;;4993375;28;20445;-67
2023/05/06 12:37:29;;;;;;;2.60;2.40;;;28.20;48.40;;;;;;4992237;28;20681;-67
2023/05/06 12:39:54;;;;;;;3.73;2.13;;;26.60;50.60;;;;;;4975493;28;20178;-67
2023/05/06 12:42:21;;;;;;;2.33;2.10;;;25.90;52.30;;;;;;4993056;28;20411;-67
2023/05/06 12:44:47;;;;;;;2.73;2.03;;;27.50;51.40;;;;;;4993249;28;20688;-67
2023/05/06 12:47:23;;;;;;;2.60;2.40;;;30.60;48.60;;;;;;4992910;28;20497;-68